createdAt,value
2023-06-06T00:00:27.653Z,7.90
2023-06-06T00:02:56.240Z,7.53
2023-06-06T00:05:28.530Z,7.40
2023-06-06T00:07:57.864Z,7.07
2023-06-06T00:10:26.225Z,7.13
2023-06-06T00:12:56.204Z,7.40
2023-06-06T00:15:27.400Z,7.72
2023-06-06T00:17:57.297Z,7.88
2023-06-06T00:20:25.846Z,7.47
2023-06-06T00:22:55.017Z,7.47
2023-06-06T00:25:23.499Z,7.90
2023-06-06T00:27:51.816Z,8.60
2023-06-06T00:30:20.348Z,8.43
2023-06-06T00:32:50.171Z,8.15
2023-06-06T00:35:18.527Z,8.70
2023-06-06T00:37:46.846Z,8.73
2023-06-06T00:40:15.679Z,8.43
2023-06-06T00:42:44.009Z,8.90
2023-06-06T00:45:12.571Z,8.95
2023-06-06T00:47:41.549Z,8.55
2023-06-06T00:50:14.214Z,9.25
2023-06-06T00:53:01.444Z,8.82
2023-06-06T00:55:30.178Z,8.68
2023-06-06T00:58:01.191Z,8.60
2023-06-06T01:00:33.658Z,9.00
2023-06-06T01:03:04.913Z,8.68
2023-06-06T01:05:34.857Z,8.93
2023-06-06T01:08:03.190Z,8.52
2023-06-06T01:10:31.702Z,8.52
2023-06-06T01:13:08.396Z,8.68
2023-06-06T01:15:43.113Z,8.73
2023-06-06T01:18:13.229Z,8.10
2023-06-06T01:20:44.363Z,7.88
2023-06-06T01:23:14.533Z,8.43
2023-06-06T01:25:47.940Z,8.25
2023-06-06T01:28:16.668Z,8.25
2023-06-06T01:30:47.065Z,8.23
2023-06-06T01:33:28.958Z,7.70
2023-06-06T01:36:06.823Z,8.15
2023-06-06T01:38:41.919Z,7.80
2023-06-06T01:41:14.227Z,8.60
2023-06-06T01:43:44.050Z,8.15
2023-06-06T01:46:13.694Z,8.10
2023-06-06T01:48:43.135Z,8.02
2023-06-06T01:51:12.404Z,8.32
2023-06-06T01:53:42.351Z,8.60
2023-06-06T01:56:15.000Z,8.27
2023-06-06T01:58:44.346Z,8.38
2023-06-06T02:01:13.011Z,7.97
2023-06-06T02:03:42.600Z,8.98
2023-06-06T02:06:11.042Z,8.38
2023-06-06T02:08:43.017Z,8.77
2023-06-06T02:11:11.657Z,8.35
2023-06-06T02:13:40.149Z,8.95
2023-06-06T02:16:09.003Z,8.27
2023-06-06T02:18:37.694Z,9.30
2023-06-06T02:21:06.154Z,8.57
2023-06-06T02:23:34.490Z,8.48
2023-06-06T02:26:05.043Z,8.10
2023-06-06T02:28:33.371Z,8.13
2023-06-06T02:31:03.594Z,8.23
2023-06-06T02:33:31.941Z,9.02
2023-06-06T02:36:01.756Z,8.73
2023-06-06T02:38:30.146Z,9.30
2023-06-06T02:40:58.738Z,8.88
2023-06-06T02:43:28.412Z,9.23
2023-06-06T02:45:56.834Z,9.35
2023-06-06T02:48:25.666Z,8.95
2023-06-06T02:50:54.084Z,8.75
2023-06-06T02:53:22.855Z,8.52
2023-06-06T02:55:51.301Z,10.07
2023-06-06T02:58:31.533Z,10.40
2023-06-06T03:01:02.137Z,9.75
2023-06-06T03:03:30.894Z,10.70
2023-06-06T03:06:00.118Z,9.63
2023-06-06T03:08:28.553Z,9.88
2023-06-06T03:10:57.904Z,10.13
2023-06-06T03:13:26.410Z,8.95
2023-06-06T03:15:57.914Z,9.50
2023-06-06T03:18:28.635Z,9.55
2023-06-06T03:21:02.794Z,9.88
2023-06-06T03:23:37.016Z,9.73
2023-06-06T03:26:06.342Z,9.38
2023-06-06T03:28:35.341Z,9.90
2023-06-06T03:31:07.381Z,9.07
2023-06-06T03:33:44.120Z,9.20
2023-06-06T03:36:12.612Z,10.18
2023-06-06T03:38:41.267Z,9.70
2023-06-06T03:41:10.449Z,8.85
2023-06-06T03:43:40.298Z,9.63
2023-06-06T03:46:10.088Z,9.80
2023-06-06T03:48:38.517Z,9.80
2023-06-06T03:51:07.056Z,9.90
2023-06-06T03:53:36.079Z,9.77
2023-06-06T03:56:06.057Z,9.95
2023-06-06T03:58:34.425Z,8.90
2023-06-06T04:01:02.952Z,9.45
2023-06-06T04:03:37.918Z,9.43
2023-06-06T04:06:09.155Z,9.85
2023-06-06T04:08:39.883Z,9.82
2023-06-06T04:11:08.439Z,9.82
2023-06-06T04:14:05.497Z,8.82
2023-06-06T04:16:33.583Z,9.10
2023-06-06T04:19:04.182Z,9.00
2023-06-06T04:21:33.492Z,9.77
2023-06-06T04:24:01.851Z,8.68
2023-06-06T04:26:32.850Z,9.13
2023-06-06T04:29:01.397Z,8.85
2023-06-06T04:31:31.253Z,9.32
2023-06-06T04:34:02.490Z,7.93
2023-06-06T04:36:34.475Z,9.57
2023-06-06T04:39:05.867Z,8.98
2023-06-06T04:44:05.900Z,9.90
2023-06-06T04:46:33.970Z,9.35
2023-06-06T04:49:02.544Z,9.07
2023-06-06T04:51:34.083Z,8.80
2023-06-06T04:54:03.764Z,8.80
2023-06-06T04:56:32.044Z,8.80
2023-06-06T04:59:07.861Z,8.63
2023-06-06T05:01:37.668Z,8.48
2023-06-06T05:04:06.569Z,8.77
2023-06-06T05:06:36.312Z,8.90
2023-06-06T05:09:05.928Z,9.70
2023-06-06T05:11:34.161Z,8.88
2023-06-06T05:14:02.369Z,8.85
2023-06-06T05:16:30.805Z,8.77
2023-06-06T05:18:58.938Z,9.05
2023-06-06T05:21:27.019Z,8.27
2023-06-06T05:23:56.552Z,9.55
2023-06-06T05:26:24.614Z,9.45
2023-06-06T05:28:52.652Z,8.60
2023-06-06T05:31:22.363Z,8.90
2023-06-06T05:33:50.508Z,8.88
2023-06-06T05:36:18.590Z,8.55
2023-06-06T05:38:46.782Z,8.18
2023-06-06T05:41:16.378Z,8.43
2023-06-06T05:43:47.148Z,8.57
2023-06-06T05:46:16.062Z,7.97
2023-06-06T05:48:44.184Z,9.57
2023-06-06T05:51:12.932Z,8.60
2023-06-06T05:53:45.986Z,8.48
2023-06-06T05:56:17.323Z,9.48
2023-06-06T05:58:48.055Z,8.52
2023-06-06T06:01:16.225Z,8.30
2023-06-06T06:03:45.986Z,8.25
2023-06-06T06:06:14.215Z,7.95
2023-06-06T06:08:43.604Z,8.07
2023-06-06T06:11:12.278Z,8.20
2023-06-06T06:13:41.972Z,8.13
2023-06-06T06:16:10.045Z,8.35
2023-06-06T06:18:38.421Z,7.90
2023-06-06T06:21:06.915Z,7.80
2023-06-06T06:23:35.066Z,7.60
2023-06-06T06:26:03.128Z,7.30
2023-06-06T06:28:32.293Z,7.68
2023-06-06T06:31:01.927Z,7.63
2023-06-06T06:33:30.701Z,6.95
2023-06-06T06:35:58.751Z,8.00
2023-06-06T06:38:27.341Z,7.10
2023-06-06T06:40:55.691Z,7.53
2023-06-06T06:43:23.830Z,7.22
2023-06-06T06:46:02.774Z,7.20
2023-06-06T06:48:30.865Z,7.20
2023-06-06T06:50:58.956Z,7.45
2023-06-06T06:53:31.624Z,7.57
2023-06-06T06:55:59.747Z,6.88
2023-06-06T06:58:35.099Z,6.78
2023-06-06T07:01:04.939Z,6.88
2023-06-06T07:03:35.443Z,6.47
2023-06-06T07:06:05.656Z,6.57
2023-06-06T07:08:33.927Z,6.60
2023-06-06T07:11:04.148Z,6.50
2023-06-06T07:13:32.717Z,5.75
2023-06-06T07:16:00.906Z,6.18
2023-06-06T07:18:30.503Z,6.60
2023-06-06T07:20:59.074Z,5.65
2023-06-06T07:23:27.237Z,6.28
2023-06-06T07:25:55.339Z,5.78
2023-06-06T07:28:24.475Z,6.25
2023-06-06T07:30:52.603Z,5.53
2023-06-06T07:33:20.729Z,5.93
2023-06-06T07:35:50.445Z,5.70
2023-06-06T07:38:18.518Z,5.50
2023-06-06T07:40:46.590Z,5.63
2023-06-06T07:43:14.605Z,6.03
2023-06-06T07:45:42.754Z,5.95
2023-06-06T07:48:10.944Z,6.40
2023-06-06T07:50:39.085Z,6.68
2023-06-06T07:53:08.534Z,5.35
2023-06-06T07:55:38.288Z,6.00
2023-06-06T07:58:11.488Z,5.68
2023-06-06T08:00:39.589Z,6.40
2023-06-06T08:03:09.016Z,5.63
2023-06-06T08:05:38.269Z,5.95
2023-06-06T08:08:07.321Z,6.20
2023-06-06T08:10:39.323Z,6.18
2023-06-06T08:13:07.884Z,5.35
2023-06-06T08:15:35.937Z,5.55
2023-06-06T08:18:04.198Z,5.38
2023-06-06T08:20:32.320Z,5.43
2023-06-06T08:23:00.826Z,5.32
2023-06-06T08:25:30.078Z,5.75
2023-06-06T08:28:00.571Z,5.90
2023-06-06T08:30:28.678Z,5.40
2023-06-06T08:32:56.859Z,5.32
2023-06-06T08:35:25.618Z,5.30
2023-06-06T08:37:55.104Z,5.65
2023-06-06T08:40:23.276Z,4.82
2023-06-06T08:42:53.455Z,5.15
2023-06-06T08:45:23.714Z,4.80
2023-06-06T08:47:52.325Z,5.22
2023-06-06T08:50:22.758Z,5.53
2023-06-06T08:52:51.307Z,5.78
2023-06-06T08:55:21.014Z,5.30
2023-06-06T08:57:49.910Z,5.38
2023-06-06T09:00:22.721Z,5.30
2023-06-06T09:02:55.123Z,5.00
2023-06-06T09:05:23.941Z,5.22
2023-06-06T09:07:54.180Z,5.25
2023-06-06T09:10:22.611Z,5.60
2023-06-06T09:12:50.933Z,5.63
2023-06-06T09:15:19.105Z,5.70
2023-06-06T09:17:48.795Z,5.72
2023-06-06T09:20:18.721Z,5.93
2023-06-06T09:22:49.085Z,5.95
2023-06-06T09:25:21.372Z,6.05
2023-06-06T09:27:54.171Z,5.93
2023-06-06T09:30:23.761Z,6.45
2023-06-06T09:32:58.357Z,5.38
2023-06-06T09:35:31.914Z,5.53
2023-06-06T09:38:06.192Z,5.68
2023-06-06T09:40:34.426Z,5.75
2023-06-06T09:43:02.571Z,5.18
2023-06-06T09:45:30.881Z,6.03
2023-06-06T09:48:01.585Z,5.65
2023-06-06T09:50:31.422Z,5.30
2023-06-06T09:52:59.639Z,5.20
2023-06-06T09:55:27.892Z,5.38
2023-06-06T09:57:59.382Z,5.22
2023-06-06T10:00:29.033Z,5.28
2023-06-06T10:02:59.473Z,5.75
2023-06-06T10:05:31.508Z,5.63
2023-06-06T10:08:00.056Z,6.05
2023-06-06T10:10:29.520Z,5.20
2023-06-06T10:12:59.776Z,5.88
2023-06-06T10:15:29.826Z,6.15
2023-06-06T10:17:59.506Z,5.88
2023-06-06T10:20:30.282Z,6.20
2023-06-06T10:22:58.889Z,5.95
2023-06-06T10:25:28.304Z,6.13
2023-06-06T10:28:02.898Z,6.03
2023-06-06T10:30:36.629Z,5.68
2023-06-06T10:33:16.085Z,5.47
2023-06-06T10:35:49.665Z,5.68
2023-06-06T10:38:17.972Z,5.43
2023-06-06T10:40:52.736Z,5.80
2023-06-06T10:43:46.723Z,5.68
2023-06-06T10:46:15.881Z,5.45
2023-06-06T10:48:48.921Z,5.57
2023-06-06T10:51:35.847Z,5.95
2023-06-06T10:54:21.615Z,5.70
2023-06-06T10:56:53.951Z,5.65
2023-06-06T10:59:28.584Z,6.38
2023-06-06T11:01:57.613Z,6.07
2023-06-06T11:04:27.467Z,6.30
2023-06-06T11:07:01.599Z,6.10
2023-06-06T11:09:32.208Z,6.45
2023-06-06T11:12:26.310Z,6.00
2023-06-06T11:14:58.209Z,5.47
2023-06-06T11:17:31.726Z,5.93
2023-06-06T11:20:02.087Z,6.25
2023-06-06T11:22:35.151Z,6.07
2023-06-06T11:25:06.921Z,5.88
2023-06-06T11:27:36.952Z,6.30
2023-06-06T11:30:05.666Z,6.63
2023-06-06T11:32:35.070Z,6.40
2023-06-06T11:35:09.136Z,6.38
2023-06-06T11:37:38.706Z,6.50
2023-06-06T11:40:10.666Z,6.38
2023-06-06T11:42:43.073Z,6.30
2023-06-06T11:45:15.307Z,6.22
2023-06-06T11:47:43.427Z,5.80
2023-06-06T11:50:11.911Z,6.72
2023-06-06T11:52:50.210Z,5.70
2023-06-06T11:55:18.867Z,5.93
2023-06-06T11:57:46.918Z,5.22
2023-06-06T12:00:18.514Z,5.65
2023-06-06T12:02:50.264Z,7.20
2023-06-06T12:05:21.172Z,5.95
2023-06-06T12:07:51.980Z,5.70
2023-06-06T12:10:25.540Z,7.10
2023-06-06T12:12:53.776Z,6.97
2023-06-06T12:15:22.420Z,6.60
2023-06-06T12:17:53.704Z,6.40
2023-06-06T12:20:25.855Z,6.85
2023-06-06T12:22:55.458Z,7.50
2023-06-06T12:25:28.339Z,7.20
2023-06-06T12:27:57.391Z,7.65
2023-06-06T12:30:33.086Z,7.63
2023-06-06T12:33:03.620Z,6.72
2023-06-06T12:35:32.387Z,6.63
2023-06-06T12:38:03.122Z,6.97
2023-06-06T12:40:35.267Z,6.68
2023-06-06T12:43:06.248Z,7.43
2023-06-06T12:45:37.889Z,6.35
2023-06-06T12:48:06.673Z,6.00
2023-06-06T12:50:34.896Z,6.20
2023-06-06T12:53:04.864Z,6.53
2023-06-06T12:55:33.177Z,6.50
2023-06-06T12:58:01.345Z,5.38
2023-06-06T13:00:29.462Z,6.18
2023-06-06T13:02:57.614Z,6.13
2023-06-06T13:05:25.814Z,5.90
2023-06-06T13:07:53.980Z,5.75
2023-06-06T13:10:23.419Z,5.60
2023-06-06T13:12:51.670Z,5.30
2023-06-06T13:15:19.755Z,5.78
2023-06-06T13:17:47.976Z,5.75
2023-06-06T13:20:17.095Z,5.03
2023-06-06T13:22:45.213Z,5.47
2023-06-06T13:25:13.261Z,5.85
2023-06-06T13:27:42.817Z,5.32
2023-06-06T13:30:11.653Z,5.53
2023-06-06T13:32:39.825Z,5.53
2023-06-06T13:35:08.479Z,5.38
2023-06-06T13:37:36.659Z,5.07
2023-06-06T13:40:05.722Z,5.72
2023-06-06T13:42:33.813Z,5.03
2023-06-06T13:45:03.853Z,5.72
2023-06-06T13:47:32.059Z,5.43
2023-06-06T13:50:00.220Z,5.68
2023-06-06T13:52:28.462Z,4.97
2023-06-06T13:54:56.554Z,5.07
2023-06-06T13:57:29.986Z,4.82
2023-06-06T13:59:58.408Z,5.18
2023-06-06T14:02:28.072Z,5.43
2023-06-06T14:04:56.343Z,4.63
2023-06-06T14:07:25.191Z,5.07
2023-06-06T14:09:53.406Z,5.18
2023-06-06T14:12:21.541Z,5.00
2023-06-06T14:14:49.615Z,5.13
2023-06-06T14:17:18.110Z,4.72
2023-06-06T14:19:52.162Z,4.70
2023-06-06T14:22:25.496Z,5.55
2023-06-06T14:24:55.641Z,5.15
2023-06-06T14:27:24.589Z,5.28
2023-06-06T14:29:56.102Z,5.22
2023-06-06T14:32:30.233Z,5.05
2023-06-06T14:35:01.373Z,5.50
2023-06-06T14:37:29.581Z,4.88
2023-06-06T14:39:58.096Z,4.88
2023-06-06T14:42:26.672Z,5.57
2023-06-06T14:44:56.708Z,5.53
2023-06-06T14:47:25.309Z,4.63
2023-06-06T14:49:53.495Z,5.55
2023-06-06T14:52:23.485Z,4.72
2023-06-06T14:54:51.730Z,5.03
2023-06-06T14:57:20.647Z,5.05
2023-06-06T14:59:48.765Z,5.50
2023-06-06T15:02:17.438Z,4.45
2023-06-06T15:04:45.856Z,4.30
2023-06-06T15:07:14.492Z,5.10
2023-06-06T15:09:44.138Z,4.72
2023-06-06T15:12:14.070Z,5.88
2023-06-06T15:14:43.151Z,5.20
2023-06-06T15:17:12.097Z,4.93
2023-06-06T15:19:42.542Z,5.03
2023-06-06T15:22:11.129Z,5.32
2023-06-06T15:24:39.488Z,5.22
2023-06-06T15:27:09.287Z,4.65
2023-06-06T15:29:39.339Z,5.70
2023-06-06T15:32:09.012Z,5.53
2023-06-06T15:34:38.940Z,5.40
2023-06-06T15:37:08.110Z,5.65
2023-06-06T15:39:36.606Z,5.10
2023-06-06T15:42:05.124Z,5.10
2023-06-06T15:44:34.624Z,5.28
2023-06-06T15:47:03.052Z,4.80
2023-06-06T15:49:31.318Z,4.82
2023-06-06T15:51:59.666Z,4.90
2023-06-06T15:54:27.956Z,5.10
2023-06-06T15:56:56.136Z,4.20
2023-06-06T15:59:24.988Z,5.20
2023-06-06T16:01:55.198Z,5.15
2023-06-06T16:04:26.550Z,4.88
2023-06-06T16:06:54.721Z,4.93
2023-06-06T16:09:22.831Z,5.32
2023-06-06T16:11:51.015Z,4.82
2023-06-06T16:14:19.089Z,5.60
2023-06-06T16:16:47.438Z,5.10
2023-06-06T16:19:17.028Z,5.35
2023-06-06T16:21:45.133Z,4.97
2023-06-06T16:24:13.509Z,5.22
2023-06-06T16:26:42.236Z,4.93
2023-06-06T16:29:10.276Z,5.18
2023-06-06T16:31:38.407Z,4.85
2023-06-06T16:34:06.575Z,5.10
2023-06-06T16:36:36.484Z,4.95
2023-06-06T16:39:04.776Z,5.05
2023-06-06T16:41:32.847Z,5.00
2023-06-06T16:44:00.894Z,5.32
2023-06-06T16:46:29.074Z,4.90
2023-06-06T16:48:57.170Z,4.78
2023-06-06T16:51:25.255Z,5.35
2023-06-06T16:53:55.792Z,5.10
2023-06-06T16:56:24.582Z,4.57
2023-06-06T16:58:52.649Z,4.88
2023-06-06T17:01:20.802Z,5.10
2023-06-06T17:03:48.956Z,5.20
2023-06-06T17:06:17.631Z,5.18
2023-06-06T17:08:45.880Z,4.47
2023-06-06T17:11:16.127Z,5.22
2023-06-06T17:13:44.300Z,5.10
2023-06-06T17:16:12.455Z,4.80
2023-06-06T17:18:40.672Z,5.60
2023-06-06T17:21:10.533Z,5.05
2023-06-06T17:23:38.846Z,5.40
2023-06-06T17:26:07.006Z,5.95
2023-06-06T17:28:36.504Z,5.22
2023-06-06T17:31:04.650Z,5.30
2023-06-06T17:33:33.130Z,5.05
2023-06-06T17:36:01.389Z,5.43
2023-06-06T17:38:29.423Z,5.05
2023-06-06T17:40:57.532Z,5.53
2023-06-06T17:43:25.584Z,5.13
2023-06-06T17:45:55.167Z,5.57
2023-06-06T17:48:23.317Z,4.82
2023-06-06T17:50:51.383Z,4.88
2023-06-06T17:53:20.073Z,4.65
2023-06-06T17:55:48.276Z,5.53
2023-06-06T17:58:16.334Z,5.18
2023-06-06T18:00:44.439Z,5.55
2023-06-06T18:03:14.284Z,5.20
2023-06-06T18:05:43.459Z,5.40
2023-06-06T18:08:12.260Z,5.57
2023-06-06T18:10:40.312Z,5.20
2023-06-06T18:13:08.372Z,5.35
2023-06-06T18:15:36.686Z,5.20
2023-06-06T18:18:05.469Z,5.60
2023-06-06T18:20:34.956Z,5.80
2023-06-06T18:23:02.982Z,5.60
2023-06-06T18:25:33.633Z,5.68
2023-06-06T18:28:01.705Z,4.90
2023-06-06T18:30:29.813Z,5.50
2023-06-06T18:32:57.955Z,6.25
2023-06-06T18:35:26.180Z,5.03
2023-06-06T18:37:58.442Z,5.55
2023-06-06T18:40:26.930Z,5.28
2023-06-06T18:42:55.063Z,5.95
2023-06-06T18:45:23.425Z,5.50
2023-06-06T18:47:53.469Z,5.47
2023-06-06T18:50:21.967Z,5.45
2023-06-06T18:52:50.320Z,5.60
2023-06-06T18:55:20.055Z,5.60
2023-06-06T18:57:48.546Z,5.28
2023-06-06T19:00:17.556Z,5.43
2023-06-06T19:02:46.011Z,5.43
2023-06-06T19:05:15.501Z,5.07
2023-06-06T19:07:44.039Z,5.35
2023-06-06T19:10:12.727Z,4.80
2023-06-06T19:12:49.109Z,4.97
2023-06-06T19:15:18.625Z,5.70
2023-06-06T19:17:47.791Z,5.03
2023-06-06T19:20:18.897Z,5.15
2023-06-06T19:22:47.681Z,5.50
2023-06-06T19:25:16.210Z,5.32
2023-06-06T19:27:46.943Z,5.10
2023-06-06T19:30:16.864Z,4.88
2023-06-06T19:32:45.970Z,4.90
2023-06-06T19:35:14.393Z,5.32
2023-06-06T19:37:42.988Z,5.00
2023-06-06T19:40:21.958Z,4.85
2023-06-06T19:42:52.869Z,5.55
2023-06-06T19:45:21.578Z,4.80
2023-06-06T19:47:50.875Z,5.10
2023-06-06T19:50:20.655Z,5.10
2023-06-06T19:52:49.383Z,5.32
2023-06-06T19:55:18.287Z,5.32
2023-06-06T19:57:46.816Z,5.50
2023-06-06T20:00:18.121Z,5.35
2023-06-06T20:02:47.449Z,5.65
2023-06-06T20:05:16.060Z,5.20
2023-06-06T20:07:45.397Z,5.75
2023-06-06T20:10:13.991Z,5.50
2023-06-06T20:12:42.954Z,6.05
2023-06-06T20:15:12.029Z,5.80
2023-06-06T20:17:41.820Z,5.82
2023-06-06T20:20:12.068Z,5.47
2023-06-06T20:22:41.873Z,5.78
2023-06-06T20:25:11.166Z,5.07
2023-06-06T20:27:39.499Z,5.70
2023-06-06T20:30:09.122Z,5.70
2023-06-06T20:32:37.605Z,5.75
2023-06-06T20:35:08.905Z,5.68
2023-06-06T20:37:38.773Z,5.50
2023-06-06T20:40:28.790Z,5.45
2023-06-06T20:42:57.230Z,5.85
2023-06-06T20:45:26.490Z,5.85
2023-06-06T20:47:55.246Z,5.70
2023-06-06T20:50:25.100Z,6.13
2023-06-06T20:52:53.515Z,5.43
2023-06-06T20:55:22.036Z,5.97
2023-06-06T20:57:54.877Z,6.18
2023-06-06T21:00:28.576Z,5.57
2023-06-06T21:03:09.772Z,6.20
2023-06-06T21:05:44.015Z,5.68
2023-06-06T21:08:45.623Z,5.88
2023-06-06T21:11:42.648Z,5.78
2023-06-06T21:14:18.352Z,6.35
2023-06-06T21:17:06.704Z,6.20
2023-06-06T21:19:56.884Z,6.60
2023-06-06T21:22:42.807Z,6.13
2023-06-06T21:25:40.353Z,7.03
2023-06-06T21:28:24.247Z,6.20
2023-06-06T21:30:59.549Z,6.00
2023-06-06T21:33:27.933Z,6.25
2023-06-06T21:35:56.306Z,6.00
2023-06-06T21:38:26.024Z,5.63
2023-06-06T21:40:54.423Z,6.47
2023-06-06T21:43:22.700Z,6.18
2023-06-06T21:45:51.300Z,6.30
2023-06-06T21:48:19.630Z,6.40
2023-06-06T21:50:47.957Z,6.60
2023-06-06T21:53:16.362Z,6.57
2023-06-06T21:55:46.473Z,6.45
2023-06-06T21:58:14.930Z,5.72
2023-06-06T22:00:43.522Z,6.07
2023-06-06T22:03:12.013Z,6.50
2023-06-06T22:05:40.757Z,6.60
2023-06-06T22:08:09.049Z,6.47
2023-06-06T22:10:37.417Z,6.57
2023-06-06T22:13:07.207Z,6.53
2023-06-06T22:15:35.989Z,6.18
2023-06-06T22:18:04.359Z,6.70
2023-06-06T22:20:32.773Z,6.50
2023-06-06T22:23:01.124Z,5.80
2023-06-06T22:25:29.962Z,6.10
2023-06-06T22:27:58.447Z,6.90
2023-06-06T22:30:28.175Z,6.38
2023-06-06T22:32:56.529Z,6.30
2023-06-06T22:35:24.968Z,6.07
2023-06-06T22:37:56.535Z,6.35
2023-06-06T22:40:27.214Z,6.63
2023-06-06T22:42:56.915Z,6.18
2023-06-06T22:45:25.346Z,6.32
2023-06-06T22:47:55.170Z,6.97
2023-06-06T22:50:23.592Z,6.05
2023-06-06T22:52:52.332Z,6.38
2023-06-06T22:55:20.708Z,6.50
2023-06-06T22:57:49.064Z,7.53
2023-06-06T23:00:18.370Z,7.30
2023-06-06T23:02:46.935Z,7.00
2023-06-06T23:05:16.818Z,7.07
2023-06-06T23:07:45.252Z,7.00
2023-06-06T23:10:13.611Z,6.78
2023-06-06T23:12:42.075Z,7.05
2023-06-06T23:15:12.281Z,7.10
2023-06-06T23:17:40.969Z,7.20
2023-06-06T23:20:12.889Z,6.78
2023-06-06T23:22:44.334Z,6.43
2023-06-06T23:25:15.741Z,7.28
2023-06-06T23:27:44.226Z,7.80
2023-06-06T23:30:14.567Z,7.13
2023-06-06T23:32:47.045Z,7.70
2023-06-06T23:35:15.755Z,7.60
2023-06-06T23:37:45.721Z,8.15
2023-06-06T23:40:14.221Z,7.85
2023-06-06T23:42:45.629Z,7.50
2023-06-06T23:45:13.961Z,7.18
2023-06-06T23:47:42.343Z,7.57
2023-06-06T23:50:11.783Z,7.57
2023-06-06T23:52:40.126Z,7.20
2023-06-06T23:55:10.211Z,7.38
2023-06-06T23:57:38.686Z,7.45
